Time;durP1;ratioP1;P1;durP2;ratioP2;P2;SDS_P1;SDS_P2;PMS_P1;PMS_P2;Temp;Humidity;BMP_temperature;BMP_pressure;BME280_temperature;BME280_humidity;BME280_pressure;Samples;Min_cycle;Max_cycle;Signal;HPM_P1;HPM_P2
2023/12/01 00:01:49;;;;;;;24.48;8.38;;;3.00;80.50;;;;;;4995958;28;20145;-85
2023/12/01 00:04:16;;;;;;;22.35;7.93;;;3.00;80.30;;;;;;4997030;28;20108;-85
2023/12/01 00:06:44;;;;;;;23.57;8.33;;;3.00;80.30;;;;;;4996491;28;20052;-85
2023/12/01 00:09:12;;;;;;;23.17;8.27;;;3.00;80.50;;;;;;4996854;28;20054;-85
2023/12/01 00:11:39;;;;;;;24.13;7.55;;;3.00;80.60;;;;;;4996911;28;20081;-85
2023/12/01 00:14:06;;;;;;;23.75;7.97;;;3.00;80.50;;;;;;5013090;28;20057;-86
2023/12/01 00:16:33;;;;;;;21.73;8.70;;;3.00;80.40;;;;;;5012952;28;20060;-85
2023/12/01 00:19:00;;;;;;;25.80;8.57;;;3.00;80.50;;;;;;5029483;28;20050;-86
2023/12/01 00:21:27;;;;;;;23.42;8.27;;;3.00;80.10;;;;;;5012547;28;20646;-85
2023/12/01 00:23:55;;;;;;;25.63;8.45;;;2.90;80.00;;;;;;5029432;28;20499;-85
2023/12/01 00:26:23;;;;;;;22.60;8.15;;;2.90;80.10;;;;;;5029702;28;20053;-86
2023/12/01 00:28:57;;;;;;;24.95;8.95;;;2.90;80.20;;;;;;5023947;28;20136;-86
2023/12/01 00:31:24;;;;;;;23.30;8.30;;;2.80;79.90;;;;;;5022958;28;20116;-85
2023/12/01 00:33:52;;;;;;;24.02;8.65;;;2.80;79.80;;;;;;4994716;28;20049;-85
2023/12/01 00:36:19;;;;;;;24.80;8.90;;;2.70;79.70;;;;;;5011154;28;20061;-85
2023/12/01 00:38:46;;;;;;;19.85;7.20;;;2.70;79.70;;;;;;5012679;28;20137;-86
2023/12/01 00:41:13;;;;;;;22.23;7.72;;;2.60;79.80;;;;;;5012762;28;20154;-85
2023/12/01 00:43:42;;;;;;;22.03;7.47;;;2.50;80.00;;;;;;4996205;28;20140;-85
2023/12/01 00:46:09;;;;;;;25.70;8.55;;;2.50;80.40;;;;;;4995063;28;20045;-85
2023/12/01 00:48:36;;;;;;;25.40;8.65;;;2.50;80.40;;;;;;4995867;28;20056;-85
2023/12/01 00:51:04;;;;;;;21.90;8.20;;;2.50;80.50;;;;;;4996157;28;20064;-85
2023/12/01 00:53:32;;;;;;;22.58;7.50;;;2.50;80.40;;;;;;4997118;28;20045;-86
2023/12/01 00:55:59;;;;;;;20.53;7.20;;;2.50;80.50;;;;;;5034233;28;20054;-85
2023/12/01 00:58:27;;;;;;;22.90;7.20;;;2.50;80.60;;;;;;4997886;28;20054;-85
2023/12/01 01:00:55;;;;;;;20.20;7.47;;;2.50;80.70;;;;;;4996052;28;20073;-85
2023/12/01 01:03:22;;;;;;;19.02;6.90;;;2.50;80.90;;;;;;4996252;28;20132;-85
2023/12/01 01:05:49;;;;;;;19.00;6.90;;;2.60;80.90;;;;;;5029006;28;20132;-85
2023/12/01 01:08:16;;;;;;;19.10;6.80;;;2.60;80.50;;;;;;5028613;28;20081;-86
2023/12/01 01:10:43;;;;;;;19.42;6.53;;;2.50;80.20;;;;;;5012276;28;20069;-85
2023/12/01 01:13:11;;;;;;;20.63;6.90;;;2.50;80.20;;;;;;5044095;28;20050;-85
2023/12/01 01:15:47;;;;;;;19.20;7.05;;;2.50;80.30;;;;;;4997179;28;20056;-86
2023/12/01 01:18:15;;;;;;;22.95;7.95;;;2.50;80.50;;;;;;5011930;28;20582;-85
2023/12/01 01:20:42;;;;;;;20.30;7.47;;;2.50;80.40;;;;;;4995895;28;20473;-85
2023/12/01 01:23:10;;;;;;;20.67;7.00;;;2.50;80.20;;;;;;4995611;28;20137;-85
2023/12/01 01:25:38;;;;;;;25.48;8.45;;;2.50;80.20;;;;;;5011900;28;20048;-86
2023/12/01 01:28:06;;;;;;;21.25;6.97;;;2.50;80.00;;;;;;5028438;28;20049;-85
2023/12/01 01:30:32;;;;;;;26.42;8.48;;;2.50;80.20;;;;;;5017244;28;20052;-86
2023/12/01 01:32:59;;;;;;;22.37;7.63;;;2.50;80.40;;;;;;5012231;28;20136;-85
2023/12/01 01:35:28;;;;;;;21.60;7.15;;;2.50;80.50;;;;;;5028195;28;20050;-85
2023/12/01 01:37:56;;;;;;;25.02;7.97;;;2.50;80.60;;;;;;5011821;28;20527;-85
2023/12/01 01:40:22;;;;;;;24.25;7.85;;;2.60;80.80;;;;;;5028343;28;20077;-86
2023/12/01 01:42:50;;;;;;;23.20;7.85;;;2.60;80.70;;;;;;4995552;28;20077;-85
2023/12/01 01:45:17;;;;;;;25.27;8.90;;;2.70;80.60;;;;;;4995520;28;20166;-85
2023/12/01 01:47:44;;;;;;;23.67;7.28;;;2.70;80.30;;;;;;4994171;28;20622;-86
2023/12/01 01:50:11;;;;;;;23.48;7.22;;;2.60;80.00;;;;;;5011759;28;20050;-86
2023/12/01 01:52:41;;;;;;;23.92;7.32;;;2.60;80.20;;;;;;4995028;28;20062;-86
2023/12/01 01:55:10;;;;;;;20.65;7.43;;;2.60;80.40;;;;;;4995001;28;20050;-85
2023/12/01 01:57:38;;;;;;;20.93;7.27;;;2.70;80.80;;;;;;5011038;28;20166;-86
2023/12/01 02:00:07;;;;;;;20.40;7.75;;;2.70;80.90;;;;;;4995030;28;20929;-84
2023/12/01 02:02:39;;;;;;;27.40;7.95;;;2.70;80.80;;;;;;5011506;28;20153;-85
2023/12/01 02:05:12;;;;;;;23.00;7.18;;;2.70;80.40;;;;;;4994070;28;20080;-86
2023/12/01 02:07:42;;;;;;;24.42;7.43;;;2.70;80.20;;;;;;4994675;28;20668;-85
2023/12/01 02:10:15;;;;;;;22.63;7.60;;;2.70;79.70;;;;;;4994942;28;20055;-85
2023/12/01 02:12:44;;;;;;;23.77;7.60;;;2.60;79.70;;;;;;4995080;28;20064;-86
2023/12/01 02:15:11;;;;;;;20.83;8.00;;;2.60;79.80;;;;;;5009898;28;20061;-86
2023/12/01 02:17:39;;;;;;;22.17;7.75;;;2.60;79.90;;;;;;4994660;28;20528;-86
2023/12/01 02:20:14;;;;;;;19.33;6.97;;;2.50;80.20;;;;;;4994477;28;20136;-86
2023/12/01 02:22:45;;;;;;;20.37;6.70;;;2.60;80.30;;;;;;4994136;28;20227;-86
2023/12/01 02:25:12;;;;;;;20.05;7.25;;;2.60;80.00;;;;;;4994743;28;20136;-86
2023/12/01 02:27:39;;;;;;;21.83;7.05;;;2.60;79.90;;;;;;5027407;28;20049;-86
2023/12/01 02:30:10;;;;;;;21.50;6.97;;;2.60;79.80;;;;;;5010218;28;20089;-85
2023/12/01 02:32:37;;;;;;;20.58;6.88;;;2.60;79.70;;;;;;4995979;28;20058;-86
2023/12/01 02:35:05;;;;;;;19.10;7.17;;;2.60;79.70;;;;;;5009669;28;20503;-85
2023/12/01 02:37:32;;;;;;;18.02;6.55;;;2.60;79.70;;;;;;4992827;28;20138;-86
2023/12/01 02:40:01;;;;;;;19.40;7.10;;;2.60;79.90;;;;;;4992950;28;20131;-86
2023/12/01 02:42:28;;;;;;;18.80;6.72;;;2.70;79.70;;;;;;5024693;28;20057;-86
2023/12/01 02:44:55;;;;;;;19.70;6.97;;;2.70;79.60;;;;;;5009215;28;20666;-86
2023/12/01 02:47:22;;;;;;;16.37;6.17;;;2.70;79.50;;;;;;5042400;28;20155;-86
2023/12/01 02:49:49;;;;;;;16.80;5.93;;;2.70;79.40;;;;;;5010233;28;20077;-86
2023/12/01 02:52:16;;;;;;;16.45;6.00;;;2.70;79.40;;;;;;4994578;28;20077;-86
2023/12/01 02:54:43;;;;;;;17.80;6.30;;;2.60;79.20;;;;;;5010719;28;20108;-86
2023/12/01 02:57:11;;;;;;;16.27;6.28;;;2.60;78.70;;;;;;4993858;28;20046;-86
2023/12/01 02:59:38;;;;;;;18.30;6.47;;;2.50;78.50;;;;;;5020474;28;20132;-86
2023/12/01 03:02:05;;;;;;;15.10;5.88;;;2.50;78.70;;;;;;5043306;28;20064;-86
2023/12/01 03:04:33;;;;;;;16.77;6.43;;;2.50;78.80;;;;;;5010465;28;20131;-86
2023/12/01 03:07:04;;;;;;;17.48;6.60;;;2.50;78.80;;;;;;5014915;28;20581;-86
2023/12/01 03:09:31;;;;;;;16.40;6.38;;;2.50;79.10;;;;;;5028387;28;20148;-86
2023/12/01 03:11:58;;;;;;;18.67;6.70;;;2.50;79.40;;;;;;4997484;28;20606;-86
2023/12/01 03:14:26;;;;;;;18.35;6.72;;;2.50;79.30;;;;;;4997433;28;20045;-85
2023/12/01 03:16:56;;;;;;;15.50;6.45;;;2.50;79.10;;;;;;5012861;28;20137;-86
2023/12/01 03:19:23;;;;;;;17.95;6.47;;;2.50;79.00;;;;;;4996938;28;20053;-85
2023/12/01 03:21:50;;;;;;;15.35;5.53;;;2.50;79.10;;;;;;4997429;28;20053;-86
2023/12/01 03:24:17;;;;;;;19.40;7.37;;;2.50;79.10;;;;;;5013498;28;20050;-86
2023/12/01 03:26:44;;;;;;;19.50;6.57;;;2.60;79.40;;;;;;5003282;28;20145;-87
2023/12/01 03:29:11;;;;;;;18.67;7.53;;;2.50;79.00;;;;;;5013820;28;20179;-86
2023/12/01 03:31:39;;;;;;;19.08;7.20;;;2.50;78.90;;;;;;5026650;28;20628;-87
2023/12/01 03:34:07;;;;;;;17.85;7.38;;;2.50;78.90;;;;;;5012797;28;20050;-86
2023/12/01 03:36:34;;;;;;;18.73;6.83;;;2.50;78.70;;;;;;4997591;28;20133;-87
2023/12/01 03:39:01;;;;;;;19.80;8.00;;;2.50;78.60;;;;;;4997521;28;20062;-87
2023/12/01 03:41:27;;;;;;;18.45;7.60;;;2.50;78.60;;;;;;5013728;28;20054;-86
2023/12/01 03:43:56;;;;;;;23.02;8.55;;;2.50;78.40;;;;;;5028164;28;20495;-86
2023/12/01 03:46:23;;;;;;;20.02;7.65;;;2.50;78.40;;;;;;5029905;28;20996;-86
2023/12/01 03:48:52;;;;;;;22.27;8.03;;;2.50;78.20;;;;;;4997227;28;20050;-86
2023/12/01 03:51:19;;;;;;;23.15;8.23;;;2.50;78.40;;;;;;4997640;28;20053;-87
2023/12/01 03:53:46;;;;;;;22.27;7.28;;;2.50;78.40;;;;;;5011777;28;20506;-87
2023/12/01 03:56:12;;;;;;;22.45;7.55;;;2.50;78.30;;;;;;5030415;28;20053;-86
2023/12/01 03:58:39;;;;;;;19.85;7.63;;;2.50;78.20;;;;;;4998403;28;20056;-86
2023/12/01 04:01:07;;;;;;;20.70;7.50;;;2.40;78.20;;;;;;4996588;28;20706;-86
2023/12/01 04:03:34;;;;;;;20.10;7.07;;;2.40;77.80;;;;;;5013225;28;20046;-87
2023/12/01 04:06:03;;;;;;;20.73;7.78;;;2.30;76.90;;;;;;4996814;28;20100;-85
2023/12/01 04:08:31;;;;;;;21.00;7.68;;;2.20;77.00;;;;;;4996629;28;20657;-86
2023/12/01 04:10:58;;;;;;;19.67;7.00;;;2.10;77.00;;;;;;5045957;28;20093;-86
2023/12/01 04:13:25;;;;;;;19.67;7.13;;;2.10;77.20;;;;;;4996601;28;20050;-86
2023/12/01 04:15:52;;;;;;;18.83;7.30;;;2.10;77.90;;;;;;4996794;28;20160;-87
2023/12/01 04:18:19;;;;;;;21.80;8.75;;;2.10;78.10;;;;;;4996821;28;20518;-87
2023/12/01 04:20:46;;;;;;;20.90;7.85;;;2.10;78.00;;;;;;5010521;28;20057;-86
2023/12/01 04:23:15;;;;;;;20.17;6.93;;;2.10;78.20;;;;;;5003607;28;20470;-87
2023/12/01 04:25:45;;;;;;;20.03;7.37;;;2.10;77.80;;;;;;5013121;28;20054;-87
2023/12/01 04:28:12;;;;;;;19.55;7.30;;;2.10;77.60;;;;;;5004437;28;20492;-86
2023/12/01 04:30:39;;;;;;;21.95;7.38;;;2.00;77.40;;;;;;5031283;28;20058;-87
2023/12/01 04:33:06;;;;;;;21.88;7.80;;;2.00;77.50;;;;;;5013022;28;20050;-86
2023/12/01 04:35:35;;;;;;;18.35;6.90;;;2.00;77.60;;;;;;5024326;28;20062;-86
2023/12/01 04:38:04;;;;;;;20.30;7.67;;;2.00;77.60;;;;;;4996313;28;20060;-86
2023/12/01 04:40:33;;;;;;;20.77;6.85;;;2.00;77.50;;;;;;5012887;28;20053;-87
2023/12/01 04:43:01;;;;;;;20.05;7.32;;;2.00;77.10;;;;;;5030421;28;20159;-87
2023/12/01 04:45:32;;;;;;;19.45;7.32;;;2.00;77.00;;;;;;5012500;28;20053;-86
2023/12/01 04:47:59;;;;;;;20.17;6.80;;;2.00;76.80;;;;;;5028928;28;20080;-86
2023/12/01 04:50:28;;;;;;;21.47;7.20;;;2.00;76.50;;;;;;5012722;28;20530;-86
2023/12/01 04:52:56;;;;;;;20.20;8.05;;;1.90;76.50;;;;;;5029480;28;20561;-87
2023/12/01 04:55:50;;;;;;;22.95;8.25;;;1.90;76.20;;;;;;5012447;28;20046;-87
2023/12/01 04:58:17;;;;;;;21.15;6.90;;;1.90;76.10;;;;;;5012189;28;20108;-86
2023/12/01 05:00:44;;;;;;;23.17;7.97;;;1.90;76.10;;;;;;5012607;28;20104;-87
2023/12/01 05:03:11;;;;;;;21.73;7.93;;;1.90;76.00;;;;;;5002605;28;20504;-87
2023/12/01 05:05:41;;;;;;;25.33;8.00;;;1.80;76.00;;;;;;5010713;28;20077;-87
2023/12/01 05:08:11;;;;;;;25.13;8.55;;;1.80;76.00;;;;;;5019614;28;20124;-87
2023/12/01 05:10:44;;;;;;;23.23;7.93;;;1.80;75.90;;;;;;5012615;28;20064;-87
2023/12/01 05:13:14;;;;;;;24.75;7.97;;;1.80;75.90;;;;;;5012878;28;20053;-87
2023/12/01 05:15:41;;;;;;;24.97;7.83;;;1.80;75.90;;;;;;4995661;28;20532;-87
2023/12/01 05:18:10;;;;;;;25.23;8.43;;;1.80;75.80;;;;;;4995860;28;20058;-86
2023/12/01 05:20:38;;;;;;;24.08;8.70;;;1.80;75.80;;;;;;5008072;28;20076;-87
2023/12/01 05:23:09;;;;;;;25.02;7.90;;;1.80;75.70;;;;;;5029302;28;20597;-87
2023/12/01 05:25:37;;;;;;;24.10;7.72;;;1.80;75.70;;;;;;5011846;28;20549;-87
2023/12/01 05:28:06;;;;;;;24.97;8.23;;;1.70;75.70;;;;;;5011781;28;20077;-87
2023/12/01 05:30:35;;;;;;;23.60;8.15;;;1.70;75.50;;;;;;4995882;28;20561;-86
2023/12/01 05:33:04;;;;;;;25.00;8.73;;;1.70;75.50;;;;;;5011036;28;20707;-87
2023/12/01 05:35:32;;;;;;;23.10;7.55;;;1.70;75.70;;;;;;4995154;28;20057;-85
2023/12/01 05:37:59;;;;;;;23.92;8.23;;;1.70;75.70;;;;;;4994328;28;20081;-86
2023/12/01 05:40:27;;;;;;;23.33;8.10;;;1.70;75.50;;;;;;5027832;28;20062;-86
2023/12/01 05:42:55;;;;;;;27.10;7.93;;;1.70;75.50;;;;;;5027984;28;20525;-85
2023/12/01 05:45:23;;;;;;;24.92;9.13;;;1.70;75.30;;;;;;5027655;28;20508;-85
2023/12/01 05:47:53;;;;;;;28.48;8.77;;;1.60;75.10;;;;;;5008608;28;20602;-85
2023/12/01 05:50:21;;;;;;;24.67;7.72;;;1.60;75.00;;;;;;5009556;28;20076;-85
2023/12/01 05:52:51;;;;;;;26.60;8.17;;;1.60;75.30;;;;;;5010193;28;20073;-85
2023/12/01 05:55:19;;;;;;;24.88;7.95;;;1.60;75.20;;;;;;4993223;28;20058;-86
2023/12/01 05:57:47;;;;;;;23.45;8.35;;;1.60;75.00;;;;;;4989005;28;20149;-86
2023/12/01 06:00:17;;;;;;;22.88;8.18;;;1.50;74.80;;;;;;5010938;28;20056;-85
2023/12/01 06:02:45;;;;;;;26.77;8.82;;;1.50;74.80;;;;;;5024597;28;20061;-86
2023/12/01 06:05:14;;;;;;;23.83;7.60;;;1.50;75.20;;;;;;5028450;28;20084;-84
2023/12/01 06:07:45;;;;;;;24.08;8.38;;;1.50;75.10;;;;;;5044952;28;20135;-85
2023/12/01 06:10:12;;;;;;;26.08;8.95;;;1.50;75.00;;;;;;5012150;28;20120;-85
2023/12/01 06:12:40;;;;;;;25.17;8.75;;;1.40;75.00;;;;;;5012339;28;20887;-85
2023/12/01 06:15:09;;;;;;;26.33;8.68;;;1.40;74.80;;;;;;5027162;28;20080;-85
2023/12/01 06:17:36;;;;;;;26.97;8.80;;;1.40;74.80;;;;;;5027834;28;20105;-86
2023/12/01 06:20:04;;;;;;;24.95;8.43;;;1.40;75.20;;;;;;5003222;28;20054;-85
2023/12/01 06:22:33;;;;;;;27.88;8.77;;;1.40;75.10;;;;;;5029428;28;20491;-86
2023/12/01 06:25:01;;;;;;;25.88;8.60;;;1.40;75.00;;;;;;5027760;28;20054;-86
2023/12/01 06:27:27;;;;;;;23.48;7.85;;;1.40;74.60;;;;;;5010155;28;20060;-86
2023/12/01 06:29:54;;;;;;;22.90;7.83;;;1.40;74.30;;;;;;5043992;28;20149;-86
2023/12/01 06:32:21;;;;;;;23.05;7.97;;;1.40;74.20;;;;;;4997688;28;20149;-87
2023/12/01 06:34:48;;;;;;;25.52;8.32;;;1.30;74.10;;;;;;5021479;28;20073;-86
2023/12/01 06:37:15;;;;;;;25.05;8.38;;;1.20;74.50;;;;;;4994049;28;20046;-86
2023/12/01 06:39:43;;;;;;;24.52;7.53;;;1.20;74.80;;;;;;5028709;28;20471;-86
2023/12/01 06:42:11;;;;;;;25.50;8.27;;;1.30;74.80;;;;;;5011084;28;20050;-86
2023/12/01 06:44:38;;;;;;;26.80;9.82;;;1.20;74.60;;;;;;5027169;28;20512;-86
2023/12/01 06:47:05;;;;;;;25.58;8.60;;;1.20;74.20;;;;;;4994169;28;20062;-86
2023/12/01 06:49:32;;;;;;;24.58;9.05;;;1.20;74.40;;;;;;4992633;28;20056;-87
2023/12/01 06:51:59;;;;;;;23.40;8.18;;;1.20;74.50;;;;;;5028493;28;20109;-86
2023/12/01 06:54:28;;;;;;;24.90;8.37;;;1.20;74.60;;;;;;5011155;28;20057;-87
2023/12/01 06:56:57;;;;;;;25.90;8.25;;;1.20;74.40;;;;;;5010492;28;20097;-87
2023/12/01 06:59:23;;;;;;;22.45;7.32;;;1.20;74.00;;;;;;5027060;28;20132;-86
2023/12/01 07:01:52;;;;;;;24.20;7.55;;;1.20;73.90;;;;;;5010711;28;20504;-86
2023/12/01 07:04:19;;;;;;;21.48;7.63;;;1.10;73.50;;;;;;5010713;28;20133;-87
2023/12/01 07:06:47;;;;;;;23.67;7.73;;;1.10;73.50;;;;;;4991148;28;20051;-86
2023/12/01 07:09:17;;;;;;;23.90;7.57;;;1.10;73.60;;;;;;4992504;28;20054;-87
2023/12/01 07:11:45;;;;;;;21.30;6.82;;;1.00;73.50;;;;;;4994135;28;20163;-87
2023/12/01 07:14:14;;;;;;;23.90;7.63;;;1.00;73.70;;;;;;5010110;28;20083;-87
2023/12/01 07:16:42;;;;;;;21.52;7.10;;;1.00;73.90;;;;;;4993967;28;20496;-87
2023/12/01 07:19:11;;;;;;;20.67;6.73;;;1.00;74.10;;;;;;4994447;28;20053;-87
2023/12/01 07:21:38;;;;;;;21.30;7.15;;;1.00;74.30;;;;;;4994220;28;20065;-87
2023/12/01 07:24:08;;;;;;;23.70;7.38;;;1.00;74.50;;;;;;4993840;28;20152;-87
2023/12/01 07:26:35;;;;;;;21.95;7.93;;;1.00;74.60;;;;;;5018915;28;20527;-87
2023/12/01 07:29:04;;;;;;;22.45;7.03;;;1.00;74.70;;;;;;5026602;28;20500;-87
2023/12/01 07:31:34;;;;;;;22.37;6.77;;;1.00;74.60;;;;;;5001539;28;20141;-87
2023/12/01 07:34:01;;;;;;;19.83;6.43;;;1.00;74.50;;;;;;4993998;28;20078;-86
2023/12/01 07:36:29;;;;;;;18.92;6.50;;;1.00;74.50;;;;;;5026391;28;20069;-87
2023/12/01 07:38:56;;;;;;;22.17;7.63;;;1.00;74.50;;;;;;5043187;28;20060;-87
2023/12/01 07:41:23;;;;;;;24.08;7.60;;;1.00;74.20;;;;;;5028109;28;20164;-87
2023/12/01 07:43:52;;;;;;;21.70;7.30;;;1.00;73.80;;;;;;4995739;28;20153;-87
2023/12/01 07:46:21;;;;;;;21.77;6.78;;;1.00;74.30;;;;;;5025180;28;20504;-85
2023/12/01 07:48:50;;;;;;;20.20;7.10;;;1.00;74.20;;;;;;4992532;28;20128;-87
2023/12/01 07:51:18;;;;;;;23.05;7.25;;;1.00;74.10;;;;;;4994404;28;20080;-88
2023/12/01 07:53:45;;;;;;;24.08;7.57;;;1.00;73.60;;;;;;5011469;28;20527;-88
2023/12/01 07:56:21;;;;;;;22.70;7.50;;;1.00;73.40;;;;;;4995498;28;20066;-88
2023/12/01 07:58:51;;;;;;;23.60;7.15;;;0.90;72.90;;;;;;4998770;28;20104;-86
2023/12/01 08:01:19;;;;;;;17.98;6.07;;;0.80;72.50;;;;;;5000950;28;20042;-87
2023/12/01 08:03:47;;;;;;;21.25;7.07;;;0.80;72.50;;;;;;4997539;28;20145;-87
2023/12/01 08:06:16;;;;;;;20.85;7.07;;;0.60;72.90;;;;;;5015541;28;20046;-86
2023/12/01 08:08:43;;;;;;;22.33;7.07;;;0.60;73.20;;;;;;4999892;28;20073;-87
2023/12/01 08:11:10;;;;;;;21.42;7.57;;;0.60;72.90;;;;;;5016590;28;20061;-88
2023/12/01 08:13:39;;;;;;;22.35;7.32;;;0.60;72.90;;;;;;5013135;28;20057;-88
2023/12/01 08:16:07;;;;;;;22.65;7.45;;;0.50;73.20;;;;;;5016833;28;20065;-86
2023/12/01 08:18:34;;;;;;;22.25;8.40;;;0.50;73.60;;;;;;5015794;28;20049;-88
2023/12/01 08:21:02;;;;;;;21.77;7.27;;;0.50;73.70;;;;;;5017279;28;20133;-87
2023/12/01 08:23:31;;;;;;;19.65;7.22;;;0.50;74.00;;;;;;5000476;28;20046;-87
2023/12/01 08:25:58;;;;;;;25.17;8.50;;;0.50;74.20;;;;;;5016210;28;20057;-87
2023/12/01 08:28:25;;;;;;;27.88;7.13;;;0.60;74.50;;;;;;5000180;28;20057;-88
2023/12/01 08:30:54;;;;;;;20.20;6.55;;;0.60;74.50;;;;;;5000421;28;20058;-88
2023/12/01 08:33:22;;;;;;;21.80;7.30;;;0.60;74.70;;;;;;5000170;28;20052;-87
2023/12/01 08:35:49;;;;;;;22.10;7.10;;;0.60;74.60;;;;;;5015600;28;20049;-87
2023/12/01 08:38:17;;;;;;;21.10;7.05;;;0.60;74.70;;;;;;4998166;28;20056;-87
2023/12/01 08:40:46;;;;;;;20.08;7.55;;;0.60;74.60;;;;;;4997137;28;20115;-86
2023/12/01 08:43:16;;;;;;;22.25;6.57;;;0.60;74.00;;;;;;5000245;28;20053;-89
2023/12/01 08:45:43;;;;;;;23.07;7.00;;;0.50;74.30;;;;;;4999399;28;20108;-87
2023/12/01 08:48:12;;;;;;;23.30;7.22;;;0.40;75.10;;;;;;5015958;28;20729;-87
2023/12/01 08:50:39;;;;;;;23.38;7.85;;;0.40;75.50;;;;;;5016245;28;20049;-88
2023/12/01 08:53:07;;;;;;;22.25;7.47;;;0.50;75.60;;;;;;5050716;28;20046;-88
2023/12/01 08:55:38;;;;;;;21.08;7.50;;;0.50;75.60;;;;;;5033961;28;20061;-89
2023/12/01 08:58:10;;;;;;;22.97;7.57;;;0.50;75.80;;;;;;5018120;28;20054;-88
2023/12/01 09:00:37;;;;;;;23.13;8.55;;;0.50;75.50;;;;;;5003946;28;20112;-87
2023/12/01 09:03:05;;;;;;;27.17;8.00;;;0.50;75.50;;;;;;5016474;28;20050;-85
2023/12/01 09:05:33;;;;;;;24.08;7.57;;;0.50;75.30;;;;;;5003925;28;20054;-90
2023/12/01 09:08:04;;;;;;;23.23;8.02;;;0.50;75.50;;;;;;4996840;28;20081;-88
2023/12/01 09:10:31;;;;;;;22.27;7.70;;;0.50;75.30;;;;;;5013963;28;21140;-84
2023/12/01 09:12:58;;;;;;;20.10;7.63;;;0.50;75.40;;;;;;4996407;28;20042;-86
2023/12/01 09:15:27;;;;;;;19.20;6.25;;;0.50;75.60;;;;;;4996475;28;20140;-83
2023/12/01 09:17:54;;;;;;;22.38;7.63;;;0.50;75.80;;;;;;5025515;28;20058;-84
2023/12/01 09:20:21;;;;;;;23.33;7.50;;;0.50;75.90;;;;;;5013025;28;20061;-87
2023/12/01 09:22:48;;;;;;;20.27;6.90;;;0.50;76.00;;;;;;5012193;28;20097;-89
2023/12/01 09:25:15;;;;;;;20.52;6.95;;;0.50;76.20;;;;;;5057166;22;20665;-90
2023/12/01 09:27:42;;;;;;;21.20;6.65;;;0.50;76.20;;;;;;5054778;28;20051;-87
2023/12/01 09:30:13;;;;;;;21.52;7.07;;;0.50;76.20;;;;;;5082551;28;20045;-89
2023/12/01 09:32:42;;;;;;;20.67;6.85;;;0.50;76.10;;;;;;5055314;28;20724;-88
2023/12/01 09:35:09;;;;;;;19.90;6.67;;;0.50;76.40;;;;;;5066292;28;20064;-88
2023/12/01 09:37:36;;;;;;;20.58;6.60;;;0.50;76.40;;;;;;5090517;28;20160;-88
2023/12/01 09:40:06;;;;;;;17.88;6.80;;;0.50;76.50;;;;;;5058380;28;20092;-89
2023/12/01 09:42:34;;;;;;;18.35;6.53;;;0.50;76.30;;;;;;5058328;28;20048;-87
2023/12/01 09:45:02;;;;;;;18.90;7.07;;;0.50;76.50;;;;;;5061832;28;20060;-90
2023/12/01 09:47:32;;;;;;;17.33;6.23;;;0.50;76.80;;;;;;5060985;28;20127;-88
2023/12/01 09:50:02;;;;;;;16.83;6.20;;;0.50;77.00;;;;;;5061136;28;20052;-90
2023/12/01 09:52:31;;;;;;;17.80;6.60;;;0.60;77.20;;;;;;5077909;28;20055;-89
2023/12/01 09:54:58;;;;;;;18.17;6.00;;;0.60;77.50;;;;;;5076847;28;20333;-86
2023/12/01 09:57:26;;;;;;;14.65;6.07;;;0.60;77.40;;;;;;5053741;28;20075;-85
2023/12/01 09:59:53;;;;;;;15.03;5.13;;;0.60;77.20;;;;;;5077951;28;20044;-85
2023/12/01 10:02:20;;;;;;;17.60;5.85;;;0.60;76.90;;;;;;5087866;28;20145;-84
2023/12/01 10:04:48;;;;;;;16.90;5.35;;;0.60;77.00;;;;;;5080967;28;20048;-87
2023/12/01 10:07:17;;;;;;;17.77;5.60;;;0.70;77.20;;;;;;5053051;28;20566;-85
2023/12/01 10:09:44;;;;;;;19.40;5.93;;;0.70;77.40;;;;;;5070392;28;20135;-85
2023/12/01 10:12:13;;;;;;;16.63;5.27;;;0.70;77.50;;;;;;5058591;28;20049;-84
2023/12/01 10:14:42;;;;;;;16.13;5.72;;;0.80;77.50;;;;;;5090273;28;20083;-86
2023/12/01 10:17:12;;;;;;;17.98;6.50;;;0.80;77.50;;;;;;5088165;28;20052;-85
2023/12/01 10:19:45;;;;;;;15.20;5.80;;;0.80;77.70;;;;;;5053159;28;20044;-87
2023/12/01 10:22:13;;;;;;;15.93;6.22;;;0.90;77.70;;;;;;5075100;28;20060;-85
2023/12/01 10:24:52;;;;;;;14.70;5.77;;;0.90;77.50;;;;;;5065494;28;20060;-85
2023/12/01 10:27:20;;;;;;;16.10;6.03;;;0.90;77.50;;;;;;5053981;28;20054;-85
2023/12/01 10:29:47;;;;;;;13.98;5.20;;;1.00;77.60;;;;;;5071109;28;20103;-85
2023/12/01 10:32:18;;;;;;;15.43;5.40;;;1.00;77.50;;;;;;5071569;28;20057;-87
2023/12/01 10:34:52;;;;;;;14.90;5.45;;;1.00;77.30;;;;;;5043963;28;20075;-85
2023/12/01 10:37:20;;;;;;;14.73;5.10;;;1.00;77.50;;;;;;5054756;28;20052;-84
2023/12/01 10:39:54;;;;;;;14.52;5.32;;;1.00;77.90;;;;;;5073135;28;20045;-87
2023/12/01 10:42:24;;;;;;;11.75;4.90;;;1.00;77.70;;;;;;5088077;28;20578;-87
2023/12/01 10:44:52;;;;;;;13.20;4.53;;;1.00;78.20;;;;;;5051516;28;20044;-88
2023/12/01 10:47:21;;;;;;;14.05;4.55;;;1.10;78.20;;;;;;5050813;28;20053;-87
2023/12/01 10:53:14;;;;;;;13.38;4.30;;;1.10;77.80;;;;;;5063081;28;20065;-88
2023/12/01 10:55:45;;;;;;;11.48;4.35;;;1.20;78.10;;;;;;5063384;28;20150;-89
2023/12/01 10:58:17;;;;;;;13.32;4.82;;;1.20;77.90;;;;;;5062981;28;20654;-88
2023/12/01 11:00:45;;;;;;;14.15;4.85;;;1.30;77.90;;;;;;5030769;28;20080;-88
2023/12/01 11:03:13;;;;;;;13.90;4.63;;;1.30;78.10;;;;;;5031867;28;20069;-89
2023/12/01 11:05:41;;;;;;;12.10;4.55;;;1.40;78.10;;;;;;5031812;28;20052;-89
2023/12/01 11:08:23;;;;;;;13.38;4.50;;;1.40;78.00;;;;;;5066114;28;20076;-88
2023/12/01 11:11:03;;;;;;;12.13;4.38;;;1.40;78.00;;;;;;5049950;28;20059;-88
2023/12/01 11:13:42;;;;;;;13.95;5.15;;;1.50;78.20;;;;;;5050154;28;20055;-89
2023/12/01 11:16:11;;;;;;;13.30;4.40;;;1.50;78.40;;;;;;5052982;28;20426;-89
2023/12/01 11:18:38;;;;;;;11.45;4.53;;;1.60;78.40;;;;;;5080634;28;20136;-89
2023/12/01 11:21:07;;;;;;;13.18;5.05;;;1.60;78.50;;;;;;5050748;28;20156;-89
2023/12/01 11:23:35;;;;;;;13.82;4.88;;;1.70;78.40;;;;;;5049961;28;20099;-89
2023/12/01 11:26:10;;;;;;;10.88;4.40;;;1.80;78.40;;;;;;5050182;28;20045;-89
2023/12/01 11:28:46;;;;;;;12.23;5.60;;;1.80;78.20;;;;;;5050180;28;20052;-90
2023/12/01 11:31:19;;;;;;;14.43;4.63;;;1.80;78.20;;;;;;5069836;28;20107;-90
2023/12/01 11:33:48;;;;;;;12.60;4.95;;;1.90;78.20;;;;;;5059845;28;20049;-90
2023/12/01 11:36:29;;;;;;;14.27;5.57;;;2.00;78.20;;;;;;5053866;28;20561;-90
2023/12/01 11:39:20;;;;;;;12.27;4.38;;;2.00;78.10;;;;;;5054222;28;20623;-90
2023/12/01 11:42:10;;;;;;;13.03;4.90;;;2.10;78.30;;;;;;5070976;28;20056;-89
2023/12/01 11:44:39;;;;;;;11.32;4.65;;;2.20;78.20;;;;;;5070683;28;20056;-90
2023/12/01 11:47:08;;;;;;;10.90;4.68;;;2.20;78.10;;;;;;5036659;28;20064;-89
2023/12/01 11:49:38;;;;;;;12.13;4.57;;;2.30;78.00;;;;;;5052058;28;20056;-89
2023/12/01 11:52:07;;;;;;;13.10;4.93;;;2.30;77.80;;;;;;5049690;28;20991;-89
2023/12/01 11:54:36;;;;;;;14.47;5.07;;;2.40;77.60;;;;;;5034531;28;20418;-89
2023/12/01 11:57:06;;;;;;;13.68;4.97;;;2.40;77.50;;;;;;5053492;28;20045;-89
2023/12/01 11:59:33;;;;;;;13.02;5.07;;;2.40;77.60;;;;;;5060514;28;20056;-89
2023/12/01 12:02:01;;;;;;;11.02;4.95;;;2.50;77.70;;;;;;5036670;28;20048;-89
2023/12/01 12:04:29;;;;;;;12.30;4.50;;;2.50;77.70;;;;;;5053046;28;20146;-89
2023/12/01 12:07:00;;;;;;;13.10;5.53;;;2.50;77.50;;;;;;5034610;28;20822;-89
2023/12/01 12:09:30;;;;;;;13.20;5.28;;;2.50;77.20;;;;;;5052928;28;20053;-89
2023/12/01 12:11:58;;;;;;;12.18;5.13;;;2.50;77.00;;;;;;5033179;28;20053;-89
2023/12/01 12:14:30;;;;;;;13.70;5.60;;;2.50;77.10;;;;;;5032603;28;20049;-89
2023/12/01 12:16:59;;;;;;;12.38;5.65;;;2.50;77.00;;;;;;5069550;28;20077;-89
2023/12/01 12:19:26;;;;;;;13.33;5.50;;;2.60;77.20;;;;;;5069868;28;20063;-88
2023/12/01 12:21:54;;;;;;;14.23;5.38;;;2.60;76.70;;;;;;5048801;28;20570;-89
2023/12/01 12:24:21;;;;;;;13.88;5.72;;;2.70;77.20;;;;;;5034760;28;20069;-89
2023/12/01 12:26:56;;;;;;;13.15;5.60;;;2.70;76.90;;;;;;5052271;28;20057;-88
2023/12/01 12:29:23;;;;;;;13.18;5.65;;;2.70;77.00;;;;;;5052694;28;20060;-89
2023/12/01 12:31:52;;;;;;;12.47;5.17;;;2.70;77.00;;;;;;5065865;28;20055;-88
2023/12/01 12:34:18;;;;;;;14.38;5.45;;;2.70;76.50;;;;;;5052688;28;20061;-88
2023/12/01 12:36:46;;;;;;;13.50;5.20;;;2.70;76.00;;;;;;5068909;28;20063;-89
2023/12/01 12:39:16;;;;;;;12.48;5.32;;;2.60;75.60;;;;;;5052516;28;20462;-89
2023/12/01 12:41:50;;;;;;;14.57;5.43;;;2.50;75.20;;;;;;5066942;28;20942;-89
2023/12/01 12:44:18;;;;;;;15.87;6.13;;;2.40;75.50;;;;;;5057952;28;20134;-85
2023/12/01 12:47:00;;;;;;;14.73;6.15;;;2.40;75.30;;;;;;5051365;28;20079;-88
2023/12/01 12:49:27;;;;;;;13.25;5.63;;;2.30;75.40;;;;;;5031827;28;20060;-87
2023/12/01 12:51:54;;;;;;;13.48;5.35;;;2.20;75.80;;;;;;5050028;28;20048;-86
2023/12/01 12:54:21;;;;;;;14.60;6.68;;;2.20;75.70;;;;;;5050625;28;20055;-88
2023/12/01 12:56:48;;;;;;;15.53;5.50;;;2.20;75.50;;;;;;5033015;28;20063;-87
2023/12/01 12:59:15;;;;;;;13.63;5.53;;;2.10;76.10;;;;;;5074119;28;20560;-88